sensor_id;sensor_type;location;lat;lon;timestamp;pressure;altitude;pressure_sealevel;temperature;humidity
21803;BME280;18591;47.080;22.214;2023-02-13T00:01:10;101656.69;;;2.61;54.55
21803;BME280;18591;47.080;22.214;2023-02-13T00:03:14;101654.16;;;2.66;54.42
21803;BME280;18591;47.080;22.214;2023-02-13T00:05:17;101646.28;;;2.69;54.17
21803;BME280;18591;47.080;22.214;2023-02-13T00:07:19;101644.56;;;2.71;54.04
21803;BME280;18591;47.080;22.214;2023-02-13T00:09:21;101637.44;;;2.70;54.25
21803;BME280;18591;47.080;22.214;2023-02-13T00:11:23;101632.28;;;2.74;54.03
21803;BME280;18591;47.080;22.214;2023-02-13T00:13:25;101634.31;;;2.83;53.88
21803;BME280;18591;47.080;22.214;2023-02-13T00:15:27;101638.88;;;2.89;53.80
21803;BME280;18591;47.080;22.214;2023-02-13T00:17:30;101632.53;;;2.83;53.64
21803;BME280;18591;47.080;22.214;2023-02-13T00:19:33;101643.31;;;2.90;53.72
21803;BME280;18591;47.080;22.214;2023-02-13T00:21:35;101654.75;;;2.87;54.02
21803;BME280;18591;47.080;22.214;2023-02-13T00:23:38;101649.44;;;2.87;53.91
21803;BME280;18591;47.080;22.214;2023-02-13T00:25:40;101655.63;;;2.88;53.82
21803;BME280;18591;47.080;22.214;2023-02-13T00:27:42;101652.28;;;2.93;53.44
21803;BME280;18591;47.080;22.214;2023-02-13T00:29:44;101653.16;;;2.94;53.20
21803;BME280;18591;47.080;22.214;2023-02-13T00:31:47;101652.88;;;2.83;53.36
21803;BME280;18591;47.080;22.214;2023-02-13T00:33:49;101658.28;;;2.88;53.18
21803;BME280;18591;47.080;22.214;2023-02-13T00:36:03;101661.41;;;2.71;53.31
21803;BME280;18591;47.080;22.214;2023-02-13T00:38:05;101668.59;;;2.75;53.13
21803;BME280;18591;47.080;22.214;2023-02-13T00:40:07;101651.03;;;2.80;52.60
21803;BME280;18591;47.080;22.214;2023-02-13T00:42:10;101661.44;;;2.73;52.85
21803;BME280;18591;47.080;22.214;2023-02-13T00:44:12;101671.25;;;2.75;52.56
21803;BME280;18591;47.080;22.214;2023-02-13T00:46:15;101670.31;;;2.73;53.13
21803;BME280;18591;47.080;22.214;2023-02-13T00:48:18;101649.06;;;2.73;52.57
21803;BME280;18591;47.080;22.214;2023-02-13T00:50:20;101655.72;;;2.57;53.22
21803;BME280;18591;47.080;22.214;2023-02-13T00:52:22;101649.69;;;2.63;53.09
21803;BME280;18591;47.080;22.214;2023-02-13T00:54:24;101647.03;;;2.63;52.89
21803;BME280;18591;47.080;22.214;2023-02-13T00:56:26;101650.53;;;2.62;52.73
21803;BME280;18591;47.080;22.214;2023-02-13T00:58:31;101647.69;;;2.54;52.43
21803;BME280;18591;47.080;22.214;2023-02-13T01:00:34;101652.03;;;2.52;53.22
21803;BME280;18591;47.080;22.214;2023-02-13T01:02:36;101643.25;;;2.55;52.74
21803;BME280;18591;47.080;22.214;2023-02-13T01:04:38;101643.94;;;2.48;52.80
21803;BME280;18591;47.080;22.214;2023-02-13T01:06:40;101644.75;;;2.45;52.76
21803;BME280;18591;47.080;22.214;2023-02-13T01:08:42;101647.41;;;2.45;52.91
21803;BME280;18591;47.080;22.214;2023-02-13T01:10:45;101645.56;;;2.43;52.62
21803;BME280;18591;47.080;22.214;2023-02-13T01:12:48;101656.16;;;2.43;52.61
21803;BME280;18591;47.080;22.214;2023-02-13T01:14:50;101638.78;;;2.22;53.69
21803;BME280;18591;47.080;22.214;2023-02-13T01:16:53;101638.84;;;2.25;53.41
21803;BME280;18591;47.080;22.214;2023-02-13T01:18:55;101639.66;;;2.23;53.54
21803;BME280;18591;47.080;22.214;2023-02-13T01:21:04;101632.50;;;2.18;53.26
21803;BME280;18591;47.080;22.214;2023-02-13T01:23:06;101631.53;;;2.16;53.52
21803;BME280;18591;47.080;22.214;2023-02-13T01:25:10;101636.69;;;2.12;53.40
21803;BME280;18591;47.080;22.214;2023-02-13T01:27:12;101631.69;;;2.21;53.35
21803;BME280;18591;47.080;22.214;2023-02-13T01:29:16;101641.44;;;2.22;52.99
21803;BME280;18591;47.080;22.214;2023-02-13T01:31:18;101640.34;;;2.15;53.38
21803;BME280;18591;47.080;22.214;2023-02-13T01:33:26;101645.56;;;2.12;52.99
21803;BME280;18591;47.080;22.214;2023-02-13T01:35:28;101651.81;;;2.14;53.09
21803;BME280;18591;47.080;22.214;2023-02-13T01:37:30;101650.03;;;2.13;53.39
21803;BME280;18591;47.080;22.214;2023-02-13T01:39:34;101647.22;;;2.09;53.50
21803;BME280;18591;47.080;22.214;2023-02-13T01:41:37;101641.06;;;2.10;53.05
21803;BME280;18591;47.080;22.214;2023-02-13T01:46:40;101638.97;;;1.98;53.50
21803;BME280;18591;47.080;22.214;2023-02-13T01:48:44;101642.81;;;2.09;53.18
21803;BME280;18591;47.080;22.214;2023-02-13T01:51:03;101641.59;;;1.98;53.55
21803;BME280;18591;47.080;22.214;2023-02-13T01:53:35;101633.44;;;1.92;54.01
21803;BME280;18591;47.080;22.214;2023-02-13T01:56:14;101642.25;;;1.91;54.52
21803;BME280;18591;47.080;22.214;2023-02-13T01:58:22;101651.91;;;1.89;54.56
21803;BME280;18591;47.080;22.214;2023-02-13T02:00:26;101645.91;;;1.94;54.27
21803;BME280;18591;47.080;22.214;2023-02-13T02:02:35;101648.41;;;1.90;54.50
21803;BME280;18591;47.080;22.214;2023-02-13T02:04:39;101655.50;;;1.91;54.17
21803;BME280;18591;47.080;22.214;2023-02-13T02:06:55;101653.84;;;1.94;54.06
21803;BME280;18591;47.080;22.214;2023-02-13T02:09:08;101647.72;;;1.95;54.02
21803;BME280;18591;47.080;22.214;2023-02-13T02:11:19;101654.63;;;1.90;54.31
21803;BME280;18591;47.080;22.214;2023-02-13T02:13:25;101646.75;;;1.93;53.50
21803;BME280;18591;47.080;22.214;2023-02-13T02:15:37;101647.59;;;1.92;53.57
21803;BME280;18591;47.080;22.214;2023-02-13T02:17:40;101649.41;;;1.93;53.68
21803;BME280;18591;47.080;22.214;2023-02-13T02:23:13;101657.94;;;1.83;53.61
21803;BME280;18591;47.080;22.214;2023-02-13T02:32:07;101670.13;;;1.78;53.98
21803;BME280;18591;47.080;22.214;2023-02-13T02:44:04;101673.91;;;1.58;55.36
21803;BME280;18591;47.080;22.214;2023-02-13T02:46:28;101675.28;;;1.46;55.62
21803;BME280;18591;47.080;22.214;2023-02-13T02:49:04;101690.25;;;1.44;55.75
21803;BME280;18591;47.080;22.214;2023-02-13T02:53:43;101682.59;;;1.53;55.10
21803;BME280;18591;47.080;22.214;2023-02-13T03:00:39;101684.56;;;1.34;56.42
21803;BME280;18591;47.080;22.214;2023-02-13T03:03:04;101684.56;;;1.34;56.18
21803;BME280;18591;47.080;22.214;2023-02-13T03:05:31;101691.97;;;1.44;55.36
21803;BME280;18591;47.080;22.214;2023-02-13T03:07:53;101691.72;;;1.36;56.08
21803;BME280;18591;47.080;22.214;2023-02-13T03:09:59;101695.16;;;1.34;55.58
21803;BME280;18591;47.080;22.214;2023-02-13T03:12:23;101691.88;;;1.41;55.77
21803;BME280;18591;47.080;22.214;2023-02-13T03:14:46;101689.06;;;1.36;56.03
21803;BME280;18591;47.080;22.214;2023-02-13T03:16:49;101695.38;;;1.40;55.70
21803;BME280;18591;47.080;22.214;2023-02-13T03:19:25;101701.38;;;1.34;56.15
21803;BME280;18591;47.080;22.214;2023-02-13T03:21:56;101695.06;;;1.30;55.84
21803;BME280;18591;47.080;22.214;2023-02-13T03:24:27;101693.53;;;1.37;55.67
21803;BME280;18591;47.080;22.214;2023-02-13T03:29:04;101702.19;;;1.32;55.64
21803;BME280;18591;47.080;22.214;2023-02-13T03:34:21;101704.59;;;1.25;56.01
21803;BME280;18591;47.080;22.214;2023-02-13T03:36:36;101697.44;;;1.23;56.02
21803;BME280;18591;47.080;22.214;2023-02-13T03:39:11;101697.31;;;1.18;56.07
21803;BME280;18591;47.080;22.214;2023-02-13T03:41:24;101686.75;;;1.20;55.92
21803;BME280;18591;47.080;22.214;2023-02-13T03:43:34;101688.50;;;1.19;56.02
21803;BME280;18591;47.080;22.214;2023-02-13T03:45:40;101691.25;;;1.22;55.81
21803;BME280;18591;47.080;22.214;2023-02-13T03:48:00;101689.47;;;1.21;55.76
21803;BME280;18591;47.080;22.214;2023-02-13T03:50:11;101691.47;;;1.28;55.50
21803;BME280;18591;47.080;22.214;2023-02-13T03:52:24;101683.53;;;1.28;55.71
21803;BME280;18591;47.080;22.214;2023-02-13T03:54:44;101685.69;;;1.15;56.73
21803;BME280;18591;47.080;22.214;2023-02-13T03:57:07;101687.91;;;1.28;55.70
21803;BME280;18591;47.080;22.214;2023-02-13T03:59:31;101685.22;;;1.26;55.32
21803;BME280;18591;47.080;22.214;2023-02-13T04:01:35;101691.63;;;1.33;54.88
21803;BME280;18591;47.080;22.214;2023-02-13T04:03:55;101687.88;;;1.26;54.76
21803;BME280;18591;47.080;22.214;2023-02-13T04:06:23;101684.81;;;1.14;55.16
21803;BME280;18591;47.080;22.214;2023-02-13T04:08:28;101679.16;;;1.30;54.98
21803;BME280;18591;47.080;22.214;2023-02-13T04:10:33;101687.09;;;1.29;54.75
21803;BME280;18591;47.080;22.214;2023-02-13T04:12:43;101688.88;;;1.30;54.94
21803;BME280;18591;47.080;22.214;2023-02-13T04:14:58;101688.16;;;1.36;54.59
21803;BME280;18591;47.080;22.214;2023-02-13T04:17:08;101681.56;;;1.23;54.25
21803;BME280;18591;47.080;22.214;2023-02-13T04:19:12;101687.66;;;1.20;54.55
21803;BME280;18591;47.080;22.214;2023-02-13T04:21:15;101683.41;;;1.25;54.32
21803;BME280;18591;47.080;22.214;2023-02-13T04:23:18;101681.47;;;1.20;54.39
21803;BME280;18591;47.080;22.214;2023-02-13T04:25:20;101677.06;;;1.20;54.58
21803;BME280;18591;47.080;22.214;2023-02-13T04:27:24;101683.22;;;1.19;55.25
21803;BME280;18591;47.080;22.214;2023-02-13T04:29:27;101684.06;;;1.18;55.08
21803;BME280;18591;47.080;22.214;2023-02-13T04:31:29;101682.50;;;1.23;55.12
21803;BME280;18591;47.080;22.214;2023-02-13T04:33:32;101681.56;;;1.23;54.87
21803;BME280;18591;47.080;22.214;2023-02-13T04:35:34;101688.59;;;1.22;54.86
21803;BME280;18591;47.080;22.214;2023-02-13T04:37:36;101692.31;;;1.27;54.74
21803;BME280;18591;47.080;22.214;2023-02-13T04:39:38;101694.00;;;1.25;55.06
21803;BME280;18591;47.080;22.214;2023-02-13T04:41:40;101699.03;;;1.18;55.07
21803;BME280;18591;47.080;22.214;2023-02-13T04:43:43;101699.44;;;1.03;55.38
21803;BME280;18591;47.080;22.214;2023-02-13T04:45:49;101704.59;;;1.00;55.96
21803;BME280;18591;47.080;22.214;2023-02-13T04:47:53;101714.53;;;1.05;55.54
21803;BME280;18591;47.080;22.214;2023-02-13T04:49:55;101712.81;;;1.07;55.73
21803;BME280;18591;47.080;22.214;2023-02-13T04:51:57;101705.72;;;1.06;55.53
21803;BME280;18591;47.080;22.214;2023-02-13T04:53:59;101705.78;;;1.08;55.18
21803;BME280;18591;47.080;22.214;2023-02-13T04:56:01;101708.16;;;1.00;55.57
21803;BME280;18591;47.080;22.214;2023-02-13T04:58:06;101712.31;;;0.94;55.61
21803;BME280;18591;47.080;22.214;2023-02-13T05:00:09;101705.19;;;0.91;56.07
21803;BME280;18591;47.080;22.214;2023-02-13T05:02:11;101714.19;;;0.96;55.84
21803;BME280;18591;47.080;22.214;2023-02-13T05:04:13;101717.81;;;1.00;55.25
21803;BME280;18591;47.080;22.214;2023-02-13T05:06:17;101712.53;;;1.00;55.62
21803;BME280;18591;47.080;22.214;2023-02-13T05:08:19;101717.16;;;1.05;55.37
21803;BME280;18591;47.080;22.214;2023-02-13T05:10:21;101715.94;;;0.96;55.49
21803;BME280;18591;47.080;22.214;2023-02-13T05:12:23;101713.50;;;1.02;55.43
21803;BME280;18591;47.080;22.214;2023-02-13T05:14:26;101714.13;;;0.95;55.77
21803;BME280;18591;47.080;22.214;2023-02-13T05:16:28;101719.38;;;0.93;55.79
21803;BME280;18591;47.080;22.214;2023-02-13T05:18:30;101714.25;;;0.98;55.38
21803;BME280;18591;47.080;22.214;2023-02-13T05:20:33;101714.97;;;0.94;55.02
21803;BME280;18591;47.080;22.214;2023-02-13T05:22:35;101713.47;;;1.00;54.76
21803;BME280;18591;47.080;22.214;2023-02-13T05:24:55;101721.06;;;0.91;55.13
21803;BME280;18591;47.080;22.214;2023-02-13T05:26:58;101724.03;;;1.00;55.08
21803;BME280;18591;47.080;22.214;2023-02-13T05:29:00;101717.72;;;0.97;54.77
21803;BME280;18591;47.080;22.214;2023-02-13T05:31:23;101723.97;;;0.99;54.52
21803;BME280;18591;47.080;22.214;2023-02-13T05:33:26;101717.63;;;0.94;54.92
21803;BME280;18591;47.080;22.214;2023-02-13T05:35:28;101726.44;;;0.94;54.41
21803;BME280;18591;47.080;22.214;2023-02-13T05:37:30;101724.28;;;0.82;54.69
21803;BME280;18591;47.080;22.214;2023-02-13T05:39:33;101724.38;;;0.85;54.55
21803;BME280;18591;47.080;22.214;2023-02-13T05:41:35;101729.50;;;0.81;54.94
21803;BME280;18591;47.080;22.214;2023-02-13T05:43:37;101735.88;;;0.86;54.98
21803;BME280;18591;47.080;22.214;2023-02-13T05:45:39;101734.09;;;0.85;54.62
21803;BME280;18591;47.080;22.214;2023-02-13T05:47:41;101737.50;;;0.82;55.06
21803;BME280;18591;47.080;22.214;2023-02-13T05:49:43;101746.06;;;0.75;54.97
21803;BME280;18591;47.080;22.214;2023-02-13T05:51:46;101748.53;;;0.71;55.11
21803;BME280;18591;47.080;22.214;2023-02-13T05:53:48;101745.00;;;0.70;55.37
21803;BME280;18591;47.080;22.214;2023-02-13T05:55:50;101743.97;;;0.67;55.91
21803;BME280;18591;47.080;22.214;2023-02-13T05:57:59;101744.03;;;0.68;55.73
21803;BME280;18591;47.080;22.214;2023-02-13T06:00:02;101741.31;;;0.67;56.09
21803;BME280;18591;47.080;22.214;2023-02-13T06:02:06;101740.53;;;0.69;55.72
21803;BME280;18591;47.080;22.214;2023-02-13T06:04:08;101730.59;;;0.62;56.83
21803;BME280;18591;47.080;22.214;2023-02-13T06:06:10;101732.19;;;0.58;56.66
21803;BME280;18591;47.080;22.214;2023-02-13T06:08:12;101729.81;;;0.64;56.30
21803;BME280;18591;47.080;22.214;2023-02-13T06:10:14;101736.78;;;0.62;56.82
21803;BME280;18591;47.080;22.214;2023-02-13T06:12:17;101730.69;;;0.65;57.00
21803;BME280;18591;47.080;22.214;2023-02-13T06:14:19;101733.38;;;0.67;57.08
21803;BME280;18591;47.080;22.214;2023-02-13T06:16:21;101735.31;;;0.71;56.88
21803;BME280;18591;47.080;22.214;2023-02-13T06:18:24;101732.16;;;0.81;56.58
21803;BME280;18591;47.080;22.214;2023-02-13T06:20:27;101734.09;;;0.85;56.94
21803;BME280;18591;47.080;22.214;2023-02-13T06:22:29;101738.63;;;0.89;56.38
21803;BME280;18591;47.080;22.214;2023-02-13T06:24:32;101736.16;;;0.94;56.92
21803;BME280;18591;47.080;22.214;2023-02-13T06:26:34;101748.66;;;0.98;56.51
21803;BME280;18591;47.080;22.214;2023-02-13T06:28:36;101744.53;;;1.06;56.32
21803;BME280;18591;47.080;22.214;2023-02-13T06:30:38;101739.13;;;1.03;56.64
21803;BME280;18591;47.080;22.214;2023-02-13T06:32:41;101732.88;;;1.01;56.86
21803;BME280;18591;47.080;22.214;2023-02-13T06:34:43;101731.91;;;0.99;56.93
21803;BME280;18591;47.080;22.214;2023-02-13T06:36:45;101737.69;;;1.13;56.49
21803;BME280;18591;47.080;22.214;2023-02-13T06:38:47;101735.19;;;1.16;56.53
21803;BME280;18591;47.080;22.214;2023-02-13T06:40:49;101737.13;;;1.21;56.57
21803;BME280;18591;47.080;22.214;2023-02-13T06:42:52;101735.38;;;1.22;56.72
21803;BME280;18591;47.080;22.214;2023-02-13T06:44:54;101736.50;;;1.28;57.04
21803;BME280;18591;47.080;22.214;2023-02-13T06:46:59;101737.31;;;1.26;57.30
21803;BME280;18591;47.080;22.214;2023-02-13T06:49:02;101727.69;;;1.55;56.61
21803;BME280;18591;47.080;22.214;2023-02-13T06:51:07;101721.84;;;1.65;56.36
21803;BME280;18591;47.080;22.214;2023-02-13T06:53:09;101726.50;;;1.72;56.97
21803;BME280;18591;47.080;22.214;2023-02-13T06:55:13;101735.75;;;1.85;56.40
21803;BME280;18591;47.080;22.214;2023-02-13T06:57:16;101731.59;;;1.93;56.67
21803;BME280;18591;47.080;22.214;2023-02-13T06:59:18;101736.25;;;2.01;56.34
21803;BME280;18591;47.080;22.214;2023-02-13T07:01:20;101728.56;;;2.10;55.62
21803;BME280;18591;47.080;22.214;2023-02-13T07:03:22;101745.28;;;2.07;55.91
21803;BME280;18591;47.080;22.214;2023-02-13T07:05:24;101735.63;;;2.09;56.31
21803;BME280;18591;47.080;22.214;2023-02-13T07:07:26;101733.59;;;2.29;55.99
21803;BME280;18591;47.080;22.214;2023-02-13T07:09:30;101736.56;;;2.40;55.60
21803;BME280;18591;47.080;22.214;2023-02-13T07:11:32;101731.66;;;2.54;55.72
21803;BME280;18591;47.080;22.214;2023-02-13T07:13:34;101726.81;;;2.69;55.36
21803;BME280;18591;47.080;22.214;2023-02-13T07:15:37;101729.75;;;2.78;55.35
21803;BME280;18591;47.080;22.214;2023-02-13T07:17:39;101717.84;;;2.96;55.54
21803;BME280;18591;47.080;22.214;2023-02-13T07:19:41;101724.34;;;3.07;55.36
21803;BME280;18591;47.080;22.214;2023-02-13T07:21:43;101729.09;;;3.19;55.28
21803;BME280;18591;47.080;22.214;2023-02-13T07:23:45;101726.75;;;3.31;54.82
21803;BME280;18591;47.080;22.214;2023-02-13T07:25:47;101719.22;;;3.48;54.76
21803;BME280;18591;47.080;22.214;2023-02-13T07:27:49;101730.81;;;3.50;54.31
21803;BME280;18591;47.080;22.214;2023-02-13T07:29:51;101738.78;;;3.50;54.29
21803;BME280;18591;47.080;22.214;2023-02-13T07:31:53;101734.50;;;3.57;54.64
21803;BME280;18591;47.080;22.214;2023-02-13T07:33:58;101729.09;;;3.52;54.27
21803;BME280;18591;47.080;22.214;2023-02-13T07:36:01;101729.09;;;3.52;53.99
21803;BME280;18591;47.080;22.214;2023-02-13T07:38:06;101723.78;;;3.52;54.21
21803;BME280;18591;47.080;22.214;2023-02-13T07:40:09;101724.59;;;3.51;54.53
21803;BME280;18591;47.080;22.214;2023-02-13T07:42:14;101731.63;;;3.47;54.41
21803;BME280;18591;47.080;22.214;2023-02-13T07:44:16;101728.97;;;3.47;54.68
21803;BME280;18591;47.080;22.214;2023-02-13T07:46:18;101722.97;;;3.56;54.79
21803;BME280;18591;47.080;22.214;2023-02-13T07:48:22;101731.94;;;3.60;54.67
21803;BME280;18591;47.080;22.214;2023-02-13T07:50:25;101727.84;;;3.74;54.49
21803;BME280;18591;47.080;22.214;2023-02-13T07:52:27;101721.13;;;3.88;54.37
21803;BME280;18591;47.080;22.214;2023-02-13T07:54:29;101732.78;;;3.95;54.35
21803;BME280;18591;47.080;22.214;2023-02-13T07:56:31;101727.72;;;4.06;54.04
21803;BME280;18591;47.080;22.214;2023-02-13T07:58:35;101726.94;;;4.10;54.13
21803;BME280;18591;47.080;22.214;2023-02-13T08:00:40;101727.81;;;4.10;53.90
21803;BME280;18591;47.080;22.214;2023-02-13T08:02:42;101734.38;;;4.25;53.63
21803;BME280;18591;47.080;22.214;2023-02-13T08:04:45;101735.56;;;4.39;53.81
21803;BME280;18591;47.080;22.214;2023-02-13T08:06:47;101731.56;;;4.58;53.54
21803;BME280;18591;47.080;22.214;2023-02-13T08:08:49;101729.31;;;4.78;53.76
21803;BME280;18591;47.080;22.214;2023-02-13T08:11:29;101729.69;;;4.54;52.70
21803;BME280;18591;47.080;22.214;2023-02-13T08:13:51;101726.50;;;4.72;53.17
21803;BME280;18591;47.080;22.214;2023-02-13T08:15:53;101733.03;;;4.86;53.42
21803;BME280;18591;47.080;22.214;2023-02-13T08:17:55;101726.97;;;4.95;53.49
21803;BME280;18591;47.080;22.214;2023-02-13T08:19:57;101724.31;;;4.93;53.06
21803;BME280;18591;47.080;22.214;2023-02-13T08:22:00;101724.50;;;5.06;53.84
21803;BME280;18591;47.080;22.214;2023-02-13T08:24:03;101721.16;;;5.14;53.20
21803;BME280;18591;47.080;22.214;2023-02-13T08:26:05;101719.22;;;5.07;52.83
21803;BME280;18591;47.080;22.214;2023-02-13T08:28:07;101723.16;;;5.28;53.13
21803;BME280;18591;47.080;22.214;2023-02-13T08:30:10;101737.22;;;5.19;52.59
21803;BME280;18591;47.080;22.214;2023-02-13T08:32:13;101732.09;;;5.30;52.69
21803;BME280;18591;47.080;22.214;2023-02-13T08:34:15;101732.94;;;5.29;52.02
21803;BME280;18591;47.080;22.214;2023-02-13T08:36:18;101731.25;;;5.34;52.34
21803;BME280;18591;47.080;22.214;2023-02-13T08:38:20;101729.56;;;5.39;52.40
21803;BME280;18591;47.080;22.214;2023-02-13T08:40:23;101736.03;;;5.50;52.47
21803;BME280;18591;47.080;22.214;2023-02-13T08:42:26;101734.25;;;5.52;52.44
21803;BME280;18591;47.080;22.214;2023-02-13T08:44:28;101738.69;;;5.50;51.74
21803;BME280;18591;47.080;22.214;2023-02-13T08:46:30;101735.25;;;5.59;51.80
21803;BME280;18591;47.080;22.214;2023-02-13T08:48:33;101739.53;;;5.49;51.30
21803;BME280;18591;47.080;22.214;2023-02-13T08:50:35;101732.41;;;5.48;51.99
21803;BME280;18591;47.080;22.214;2023-02-13T08:52:38;101733.44;;;5.56;52.15
21803;BME280;18591;47.080;22.214;2023-02-13T08:54:40;101741.22;;;5.42;51.93
21803;BME280;18591;47.080;22.214;2023-02-13T08:56:42;101743.03;;;5.45;52.17
21803;BME280;18591;47.080;22.214;2023-02-13T08:58:47;101743.03;;;5.45;52.29
21803;BME280;18591;47.080;22.214;2023-02-13T09:00:50;101744.81;;;5.46;52.88
21803;BME280;18591;47.080;22.214;2023-02-13T09:02:52;101745.13;;;5.64;52.76
21803;BME280;18591;47.080;22.214;2023-02-13T09:04:57;101741.63;;;5.65;52.34
21803;BME280;18591;47.080;22.214;2023-02-13T09:07:01;101746.09;;;5.68;52.40
21803;BME280;18591;47.080;22.214;2023-02-13T09:09:04;101743.34;;;5.65;52.16
21803;BME280;18591;47.080;22.214;2023-02-13T09:11:06;101742.69;;;5.77;52.45
21803;BME280;18591;47.080;22.214;2023-02-13T09:13:09;101740.06;;;5.80;52.65
21803;BME280;18591;47.080;22.214;2023-02-13T09:15:11;101736.59;;;5.85;52.74
21803;BME280;18591;47.080;22.214;2023-02-13T09:17:13;101740.19;;;5.87;52.71
21803;BME280;18591;47.080;22.214;2023-02-13T09:19:19;101741.06;;;5.86;53.05
21803;BME280;18591;47.080;22.214;2023-02-13T09:21:21;101740.91;;;5.77;52.37
21803;BME280;18591;47.080;22.214;2023-02-13T09:23:24;101737.44;;;5.83;52.27
21803;BME280;18591;47.080;22.214;2023-02-13T09:25:27;101742.00;;;5.88;52.61
21803;BME280;18591;47.080;22.214;2023-02-13T09:27:29;101738.38;;;5.85;52.94
21803;BME280;18591;47.080;22.214;2023-02-13T09:29:31;101748.09;;;5.81;53.06
21803;BME280;18591;47.080;22.214;2023-02-13T09:31:37;101728.53;;;5.82;53.28
21803;BME280;18591;47.080;22.214;2023-02-13T09:33:39;101731.22;;;5.82;53.38
21803;BME280;18591;47.080;22.214;2023-02-13T09:35:44;101730.41;;;5.88;53.36
21803;BME280;18591;47.080;22.214;2023-02-13T09:37:49;101727.81;;;5.91;53.49
21803;BME280;18591;47.080;22.214;2023-02-13T09:39:52;101727.75;;;5.88;53.61
21803;BME280;18591;47.080;22.214;2023-02-13T09:41:54;101736.72;;;5.92;53.49
21803;BME280;18591;47.080;22.214;2023-02-13T09:44:14;101730.63;;;5.99;53.63
21803;BME280;18591;47.080;22.214;2023-02-13T09:46:37;101727.81;;;5.93;54.17
21803;BME280;18591;47.080;22.214;2023-02-13T09:48:41;101731.56;;;6.02;54.09
21803;BME280;18591;47.080;22.214;2023-02-13T09:50:46;101727.13;;;6.03;54.03
21803;BME280;18591;47.080;22.214;2023-02-13T09:52:50;101729.91;;;6.10;53.86
21803;BME280;18591;47.080;22.214;2023-02-13T09:54:54;101724.69;;;6.17;54.36
21803;BME280;18591;47.080;22.214;2023-02-13T09:57:16;101730.88;;;6.16;54.67
21803;BME280;18591;47.080;22.214;2023-02-13T10:01:40;101721.41;;;6.38;54.32
21803;BME280;18591;47.080;22.214;2023-02-13T10:06:14;101730.44;;;6.46;54.09
21803;BME280;18591;47.080;22.214;2023-02-13T10:11:02;101719.78;;;6.47;54.04
21803;BME280;18591;47.080;22.214;2023-02-13T10:16:11;101705.75;;;6.67;53.94
21803;BME280;18591;47.080;22.214;2023-02-13T10:18:32;101709.28;;;6.64;54.26
21803;BME280;18591;47.080;22.214;2023-02-13T10:20:40;101702.19;;;6.68;53.95
21803;BME280;18591;47.080;22.214;2023-02-13T10:23:02;101698.66;;;6.69;53.92
21803;BME280;18591;47.080;22.214;2023-02-13T10:25:20;101704.03;;;6.72;53.89
21803;BME280;18591;47.080;22.214;2023-02-13T10:27:39;101699.72;;;6.82;52.73
21803;BME280;18591;47.080;22.214;2023-02-13T10:30:38;101697.97;;;6.84;51.87
21803;BME280;18591;47.080;22.214;2023-02-13T10:32:18;101685.59;;;6.92;51.64
21803;BME280;18591;47.080;22.214;2023-02-13T10:34:27;101682.03;;;6.94;51.67
21803;BME280;18591;47.080;22.214;2023-02-13T10:36:36;101676.69;;;6.96;51.52
21803;BME280;18591;47.080;22.214;2023-02-13T10:41:34;101684.72;;;6.96;50.75
21803;BME280;18591;47.080;22.214;2023-02-13T10:44:09;101682.00;;;6.90;50.31
21803;BME280;18591;47.080;22.214;2023-02-13T10:53:20;101680.41;;;7.07;50.50
21803;BME280;18591;47.080;22.214;2023-02-13T10:55:55;101675.03;;;7.04;50.29
21803;BME280;18591;47.080;22.214;2023-02-13T11:00:46;101670.53;;;7.00;50.84
21803;BME280;18591;47.080;22.214;2023-02-13T11:02:47;101667.03;;;7.09;51.20
21803;BME280;18591;47.080;22.214;2023-02-13T11:04:53;101668.81;;;7.08;50.83
21803;BME280;18591;47.080;22.214;2023-02-13T11:07:00;101664.44;;;7.16;51.07
21803;BME280;18591;47.080;22.214;2023-02-13T11:09:05;101669.00;;;7.25;51.09
21803;BME280;18591;47.080;22.214;2023-02-13T11:13:32;101666.31;;;7.25;50.52
21803;BME280;18591;47.080;22.214;2023-02-13T11:15:34;101661.88;;;7.27;50.84
21803;BME280;18591;47.080;22.214;2023-02-13T11:17:40;101658.28;;;7.22;50.75
21803;BME280;18591;47.080;22.214;2023-02-13T11:19:54;101651.16;;;7.23;50.80
21803;BME280;18591;47.080;22.214;2023-02-13T11:22:10;101641.34;;;7.23;50.93
21803;BME280;18591;47.080;22.214;2023-02-13T11:24:22;101637.81;;;7.27;50.81
21803;BME280;18591;47.080;22.214;2023-02-13T11:28:32;101640.63;;;7.47;51.80
21803;BME280;18591;47.080;22.214;2023-02-13T11:30:37;101636.28;;;7.60;51.84
21803;BME280;18591;47.080;22.214;2023-02-13T11:32:40;101633.69;;;7.69;51.63
21803;BME280;18591;47.080;22.214;2023-02-13T11:34:42;101634.63;;;7.77;51.63
21803;BME280;18591;47.080;22.214;2023-02-13T11:36:51;101625.75;;;7.84;51.73
21803;BME280;18591;47.080;22.214;2023-02-13T11:38:58;101620.44;;;7.89;51.52
21803;BME280;18591;47.080;22.214;2023-02-13T11:41:10;101620.44;;;7.94;51.87
21803;BME280;18591;47.080;22.214;2023-02-13T11:44:02;101613.38;;;8.06;52.29
21803;BME280;18591;47.080;22.214;2023-02-13T11:45:39;101613.47;;;8.20;52.12
21803;BME280;18591;47.080;22.214;2023-02-13T11:47:42;101603.69;;;8.30;51.02
21803;BME280;18591;47.080;22.214;2023-02-13T11:49:46;101599.25;;;8.38;51.91
21803;BME280;18591;47.080;22.214;2023-02-13T11:51:53;101599.31;;;8.47;52.22
21803;BME280;18591;47.080;22.214;2023-02-13T11:53:56;101596.66;;;8.55;51.68
21803;BME280;18591;47.080;22.214;2023-02-13T12:00:32;101586.88;;;8.65;50.68
21803;BME280;18591;47.080;22.214;2023-02-13T12:02:47;101573.47;;;8.72;49.97
21803;BME280;18591;47.080;22.214;2023-02-13T12:09:22;101575.28;;;8.75;50.05
21803;BME280;18591;47.080;22.214;2023-02-13T12:13:36;101574.41;;;8.85;49.88
21803;BME280;18591;47.080;22.214;2023-02-13T12:15:40;101572.63;;;8.89;50.39